Time;durP1;ratioP1;P1;durP2;ratioP2;P2;SDS_P1;SDS_P2;PMS_P1;PMS_P2;Temp;Humidity;BMP_temperature;BMP_pressure;BME280_temperature;BME280_humidity;BME280_pressure;Samples;Min_cycle;Max_cycle;Signal;HPM_P1;HPM_P2
2022/07/21 00:00:23;;;;;;;12.93;10.30;;;12.90;99.90;;;;;;4955653;28;20183;-69
2022/07/21 00:02:52;;;;;;;17.73;14.83;;;13.30;99.90;;;;;;4955727;28;20184;-69
2022/07/21 00:05:20;;;;;;;20.10;14.30;;;13.50;99.90;;;;;;4955392;28;20270;-68
2022/07/21 00:07:48;;;;;;;24.67;19.17;;;13.50;99.90;;;;;;4955474;28;20191;-68
2022/07/21 00:10:16;;;;;;;19.30;14.83;;;13.80;99.90;;;;;;4955272;28;20188;-68
2022/07/21 00:12:45;;;;;;;10.97;9.43;;;14.30;99.90;;;;;;4957234;28;20183;-68
2022/07/21 00:15:15;;;;;;;10.83;6.83;;;14.50;99.90;;;;;;4974005;28;20219;-68
2022/07/21 00:17:43;;;;;;;10.47;5.20;;;15.00;99.90;;;;;;4974687;28;20241;-69
2022/07/21 00:20:12;;;;;;;6.47;4.30;;;15.30;99.90;;;;;;4974475;28;20184;-69
2022/07/21 00:22:40;;;;;;;5.93;2.17;;;15.20;99.90;;;;;;4965401;28;20194;-68
2022/07/21 00:25:09;;;;;;;6.30;3.10;;;15.50;99.90;;;;;;4968517;28;20191;-69
2022/07/21 00:27:37;;;;;;;6.70;2.93;;;15.60;99.90;;;;;;4962984;28;20183;-68
2022/07/21 00:30:10;;;;;;;9.00;2.47;;;16.00;99.90;;;;;;4963430;28;20684;-68
2022/07/21 00:32:39;;;;;;;5.00;2.93;;;16.30;99.90;;;;;;4965300;28;20187;-68
2022/07/21 00:35:08;;;;;;;4.63;2.13;;;16.50;99.90;;;;;;4965668;28;20214;-68
2022/07/21 00:37:36;;;;;;;9.63;2.17;;;16.30;99.90;;;;;;4966116;28;20187;-67
2022/07/21 00:40:06;;;;;;;3.70;2.07;;;16.20;99.90;;;;;;4959657;28;20234;-68
2022/07/21 00:42:34;;;;;;;6.47;2.13;;;16.10;99.90;;;;;;4957249;28;20190;-67
2022/07/21 00:45:04;;;;;;;6.63;1.93;;;16.00;99.90;;;;;;4954783;28;20271;-68
2022/07/21 00:47:36;;;;;;;6.27;1.97;;;15.90;99.90;;;;;;4954518;28;20204;-68
2022/07/21 00:50:08;;;;;;;7.17;2.00;;;15.70;99.90;;;;;;4954607;29;20190;-67
2022/07/21 00:52:36;;;;;;;9.40;2.13;;;15.70;99.90;;;;;;4954659;29;20188;-68
2022/07/21 00:55:04;;;;;;;6.67;2.47;;;15.90;99.90;;;;;;4954538;29;20210;-67
2022/07/21 00:57:33;;;;;;;2.93;1.47;;;16.80;99.90;;;;;;4954572;28;20176;-67
2022/07/21 01:00:00;;;;;;;5.77;1.93;;;16.60;99.90;;;;;;4973325;28;20208;-68
2022/07/21 01:02:30;;;;;;;6.07;1.90;;;16.40;99.90;;;;;;4973561;28;20174;-68
2022/07/21 01:04:58;;;;;;;6.57;2.40;;;16.00;99.90;;;;;;4973661;28;20560;-66
2022/07/21 01:07:25;;;;;;;6.07;1.90;;;15.40;99.90;;;;;;4973561;28;20179;-67
2022/07/21 01:09:55;;;;;;;6.77;1.93;;;15.20;99.90;;;;;;4973497;28;20181;-67
2022/07/21 01:12:23;;;;;;;9.53;2.50;;;15.20;99.90;;;;;;4973936;28;20245;-67
2022/07/21 01:14:51;;;;;;;5.77;2.37;;;15.40;99.90;;;;;;4973639;28;20219;-67
2022/07/21 01:17:19;;;;;;;5.20;2.47;;;15.90;99.90;;;;;;4973402;28;20565;-68
2022/07/21 01:19:48;;;;;;;4.33;1.87;;;17.10;99.90;;;;;;4972004;28;20179;-67
2022/07/21 01:22:16;;;;;;;7.43;2.97;;;17.70;99.90;;;;;;4955424;28;20199;-67
2022/07/21 01:24:43;;;;;;;4.87;2.27;;;18.40;99.90;;;;;;4961038;28;20244;-68
2022/07/21 01:27:11;;;;;;;11.20;2.33;;;18.30;99.90;;;;;;4965650;28;20173;-68
2022/07/21 01:29:39;;;;;;;6.60;1.93;;;18.30;99.90;;;;;;4969090;28;20218;-67
2022/07/21 01:32:07;;;;;;;5.23;2.03;;;17.60;99.90;;;;;;4967665;28;20222;-68
2022/07/21 01:34:35;;;;;;;4.20;1.63;;;17.00;99.90;;;;;;4966521;28;20230;-67
2022/07/21 01:37:02;;;;;;;4.53;2.07;;;16.50;99.90;;;;;;4953768;28;20192;-68
2022/07/21 01:42:24;;;;;;;6.67;2.43;;;16.00;99.90;;;;;;4958999;28;20476;-67
2022/07/21 01:44:52;;;;;;;3.97;1.83;;;15.80;99.90;;;;;;4953956;29;20184;-68
2022/07/21 01:47:21;;;;;;;11.80;2.40;;;15.60;99.90;;;;;;4953558;28;20279;-67
2022/07/21 01:49:49;;;;;;;5.97;1.93;;;15.50;99.90;;;;;;4953575;28;20569;-67
2022/07/21 01:52:16;;;;;;;7.87;2.07;;;15.30;99.90;;;;;;4957726;28;20179;-67
2022/07/21 01:54:43;;;;;;;6.03;2.23;;;15.00;99.90;;;;;;4962291;28;20282;-67
2022/07/21 01:57:11;;;;;;;6.37;2.03;;;14.80;99.90;;;;;;4953373;29;20186;-67
2022/07/21 01:59:38;;;;;;;9.57;2.97;;;14.70;99.90;;;;;;4962492;28;20315;-67
2022/07/21 02:02:05;;;;;;;8.33;2.20;;;14.50;99.90;;;;;;4955480;28;20187;-67
2022/07/21 02:04:34;;;;;;;6.77;2.10;;;14.40;99.90;;;;;;4953541;28;20271;-67
2022/07/21 02:07:02;;;;;;;5.80;2.27;;;14.20;99.90;;;;;;4953513;28;20199;-68
2022/07/21 02:09:30;;;;;;;8.73;2.63;;;14.20;99.90;;;;;;4957373;28;20256;-67
2022/07/21 02:11:58;;;;;;;5.83;2.20;;;14.20;99.90;;;;;;4962142;28;20184;-67
2022/07/21 02:14:25;;;;;;;9.40;2.10;;;14.30;99.90;;;;;;4966431;28;20215;-68
2022/07/21 02:16:53;;;;;;;7.97;2.10;;;14.40;99.90;;;;;;4964952;28;20189;-67
2022/07/21 02:19:20;;;;;;;6.93;2.37;;;14.40;99.90;;;;;;4964003;28;20215;-67
2022/07/21 02:21:47;;;;;;;8.67;2.10;;;14.40;99.90;;;;;;4967566;28;20593;-67
2022/07/21 02:24:15;;;;;;;11.60;2.50;;;14.40;99.90;;;;;;4962393;28;20276;-67
2022/07/21 02:26:43;;;;;;;12.17;1.97;;;14.40;99.90;;;;;;4966973;28;20543;-67
2022/07/21 02:29:10;;;;;;;8.23;2.40;;;14.60;99.90;;;;;;4973292;28;20183;-67
2022/07/21 02:31:38;;;;;;;9.90;2.47;;;14.80;99.90;;;;;;4957774;28;20183;-68
2022/07/21 02:34:06;;;;;;;5.43;2.10;;;15.00;99.90;;;;;;4956681;28;20243;-68
2022/07/21 02:36:34;;;;;;;10.03;3.07;;;15.40;99.90;;;;;;4956750;28;20207;-68
2022/07/21 02:39:01;;;;;;;11.13;2.37;;;15.80;99.90;;;;;;4956412;28;20215;-67
2022/07/21 02:41:29;;;;;;;6.73;2.03;;;16.10;99.90;;;;;;4967843;28;20186;-67
2022/07/21 02:43:56;;;;;;;8.97;2.40;;;16.00;99.90;;;;;;4964298;28;20184;-67
2022/07/21 02:46:23;;;;;;;9.37;3.00;;;15.90;99.90;;;;;;4958370;28;20179;-66
2022/07/21 02:48:51;;;;;;;6.37;2.00;;;16.00;99.90;;;;;;4961033;28;20190;-66
2022/07/21 02:51:18;;;;;;;6.47;2.63;;;15.80;99.90;;;;;;4975509;28;20194;-68
2022/07/21 02:53:45;;;;;;;9.13;2.77;;;15.70;99.90;;;;;;4964886;28;20198;-67
2022/07/21 02:56:13;;;;;;;8.43;2.37;;;15.70;99.90;;;;;;4957410;28;20246;-67
2022/07/21 02:58:40;;;;;;;8.90;2.70;;;15.60;99.90;;;;;;4956358;28;20202;-67
2022/07/21 03:01:07;;;;;;;9.90;2.90;;;15.60;99.90;;;;;;4964837;28;20652;-67
2022/07/21 03:03:36;;;;;;;6.50;2.47;;;15.80;99.90;;;;;;4973853;28;20246;-66
2022/07/21 03:06:04;;;;;;;5.37;2.13;;;15.90;99.90;;;;;;4966934;28;20188;-67
2022/07/21 03:08:33;;;;;;;10.83;2.57;;;15.80;99.90;;;;;;4970602;28;20233;-67
2022/07/21 03:11:00;;;;;;;4.83;1.50;;;15.80;99.90;;;;;;4974744;28;20199;-67
2022/07/21 03:13:27;;;;;;;5.10;1.83;;;16.00;99.90;;;;;;4974596;28;20175;-66
2022/07/21 03:15:55;;;;;;;7.77;2.07;;;16.30;99.90;;;;;;4960749;28;20219;-66
2022/07/21 03:18:22;;;;;;;4.20;1.30;;;16.90;99.90;;;;;;4975575;28;20187;-67
2022/07/21 03:20:49;;;;;;;5.00;1.70;;;17.30;99.90;;;;;;4963652;28;20211;-67
2022/07/21 03:23:17;;;;;;;4.83;1.43;;;17.50;99.90;;;;;;4955675;28;20191;-67
2022/07/21 03:25:44;;;;;;;6.07;1.67;;;17.60;99.90;;;;;;4956045;29;20408;-67
2022/07/21 03:28:12;;;;;;;6.23;1.93;;;17.50;99.90;;;;;;4956074;29;20188;-67
2022/07/21 03:30:39;;;;;;;4.87;1.30;;;17.30;99.90;;;;;;4961151;28;20191;-67
2022/07/21 03:33:07;;;;;;;4.50;1.60;;;17.10;99.90;;;;;;4974779;28;20192;-67
2022/07/21 03:35:35;;;;;;;4.23;1.07;;;17.20;99.90;;;;;;4963525;28;20219;-67
2022/07/21 03:38:03;;;;;;;5.60;1.10;;;17.40;99.90;;;;;;4955679;28;20277;-68
2022/07/21 03:40:34;;;;;;;4.47;0.90;;;17.20;99.90;;;;;;4955290;28;20307;-67
2022/07/21 03:43:04;;;;;;;3.00;1.00;;;17.50;99.90;;;;;;4966431;28;20198;-67
2022/07/21 03:45:33;;;;;;;3.13;1.00;;;17.70;99.90;;;;;;4955585;28;20183;-66
2022/07/21 03:48:02;;;;;;;4.30;1.10;;;17.70;99.90;;;;;;4958277;28;20194;-67
2022/07/21 03:50:30;;;;;;;5.00;1.33;;;17.30;99.90;;;;;;4956856;28;20212;-67
2022/07/21 03:52:58;;;;;;;6.47;1.80;;;17.20;99.90;;;;;;4955502;28;20663;-68
2022/07/21 03:55:26;;;;;;;3.70;1.23;;;16.90;99.90;;;;;;4955597;28;20227;-68
2022/07/21 03:57:56;;;;;;;4.33;1.33;;;16.70;99.90;;;;;;4956513;28;20218;-68
2022/07/21 04:00:25;;;;;;;5.67;1.53;;;16.50;99.90;;;;;;4955650;28;20234;-68
2022/07/21 04:02:52;;;;;;;2.07;0.93;;;16.30;99.90;;;;;;4955376;28;20211;-68
2022/07/21 04:05:21;;;;;;;2.83;1.00;;;16.10;99.90;;;;;;4959321;28;20845;-69
2022/07/21 04:07:50;;;;;;;1.70;1.00;;;15.80;99.90;;;;;;4958752;28;20266;-68
2022/07/21 04:10:20;;;;;;;6.23;1.63;;;15.40;99.90;;;;;;4973821;28;20215;-69
2022/07/21 04:12:48;;;;;;;4.87;1.60;;;15.10;99.90;;;;;;4974194;28;20187;-69
2022/07/21 04:15:16;;;;;;;4.70;1.50;;;14.80;99.90;;;;;;4968383;28;20216;-67
2022/07/21 04:17:43;;;;;;;3.37;1.60;;;14.60;99.90;;;;;;4955145;28;20646;-68
2022/07/21 04:20:13;;;;;;;5.47;1.67;;;14.50;99.90;;;;;;4970289;28;20660;-69
2022/07/21 04:22:42;;;;;;;5.07;1.40;;;14.50;99.90;;;;;;4972738;28;20189;-69
2022/07/21 04:25:10;;;;;;;5.73;1.70;;;14.50;99.90;;;;;;4973596;28;20189;-69
2022/07/21 04:27:38;;;;;;;4.20;1.50;;;14.70;99.90;;;;;;4962705;28;20246;-68
2022/07/21 04:30:09;;;;;;;2.83;1.10;;;14.70;99.90;;;;;;4955091;28;20681;-70
2022/07/21 04:32:36;;;;;;;9.07;1.60;;;14.60;99.90;;;;;;4961094;28;20176;-69
2022/07/21 04:35:05;;;;;;;4.97;1.83;;;14.50;99.90;;;;;;4972887;28;20714;-69
2022/07/21 04:37:33;;;;;;;3.20;1.40;;;14.40;99.90;;;;;;4973695;28;20577;-69
2022/07/21 04:40:01;;;;;;;5.07;1.50;;;14.40;99.90;;;;;;4956718;28;20219;-68
2022/07/21 04:42:28;;;;;;;6.63;1.60;;;14.30;99.90;;;;;;4956107;28;20679;-67
2022/07/21 04:44:55;;;;;;;3.73;1.47;;;14.20;99.90;;;;;;4957235;28;20246;-68
2022/07/21 04:47:23;;;;;;;6.23;1.97;;;14.00;99.90;;;;;;4963486;28;20200;-69
2022/07/21 04:49:50;;;;;;;7.13;1.90;;;14.00;99.90;;;;;;4955129;28;20211;-67
2022/07/21 04:52:17;;;;;;;5.47;1.87;;;14.00;99.90;;;;;;4954118;29;20176;-68
2022/07/21 04:54:45;;;;;;;9.53;1.90;;;14.00;99.90;;;;;;4970528;28;20264;-68
2022/07/21 04:57:12;;;;;;;10.10;2.67;;;13.90;99.90;;;;;;4973202;28;20194;-68
2022/07/21 04:59:39;;;;;;;5.23;2.00;;;13.90;99.90;;;;;;4971182;28;20238;-68
2022/07/21 05:02:07;;;;;;;7.20;1.57;;;14.00;99.90;;;;;;4972968;28;20195;-68
2022/07/21 05:04:34;;;;;;;6.30;1.73;;;14.10;99.90;;;;;;4972904;28;20191;-68
2022/07/21 05:07:01;;;;;;;3.83;1.53;;;14.20;99.90;;;;;;4972845;28;20182;-68
2022/07/21 05:09:29;;;;;;;6.07;1.43;;;14.30;99.90;;;;;;4957929;28;20194;-67
2022/07/21 05:11:56;;;;;;;8.20;1.87;;;14.40;99.90;;;;;;4954354;28;20700;-68
2022/07/21 05:14:23;;;;;;;7.47;1.97;;;14.50;99.90;;;;;;4954449;28;20195;-68
2022/07/21 05:16:51;;;;;;;4.80;1.80;;;14.60;99.90;;;;;;4954061;28;20210;-68
2022/07/21 05:19:18;;;;;;;6.33;2.00;;;14.70;99.90;;;;;;4953776;28;20190;-68
2022/07/21 05:21:46;;;;;;;5.37;1.60;;;14.60;99.90;;;;;;4955133;28;20607;-70
2022/07/21 05:24:14;;;;;;;9.93;1.70;;;14.70;99.90;;;;;;4953860;28;20196;-69
2022/07/21 05:26:41;;;;;;;5.43;1.60;;;14.70;99.90;;;;;;4958787;28;20195;-69
2022/07/21 05:29:09;;;;;;;8.33;1.93;;;14.80;99.90;;;;;;4954690;28;20676;-71
2022/07/21 05:31:36;;;;;;;8.27;1.67;;;14.80;99.90;;;;;;4956629;28;20188;-70
2022/07/21 05:34:03;;;;;;;4.13;1.67;;;14.70;99.90;;;;;;4969085;28;20190;-69
2022/07/21 05:36:31;;;;;;;9.23;1.87;;;14.80;99.90;;;;;;4960665;28;20560;-69
2022/07/21 05:38:58;;;;;;;6.03;1.97;;;14.80;99.90;;;;;;4969360;28;20554;-68
2022/07/21 05:41:26;;;;;;;6.83;2.10;;;14.70;99.90;;;;;;4961190;28;20202;-68
2022/07/21 05:43:53;;;;;;;7.77;2.17;;;14.70;99.90;;;;;;4956229;28;20209;-68
2022/07/21 05:46:20;;;;;;;7.20;2.10;;;14.70;99.90;;;;;;4963085;28;20187;-69
2022/07/21 05:48:47;;;;;;;5.27;2.30;;;14.70;99.90;;;;;;4964123;28;20228;-69
2022/07/21 05:51:15;;;;;;;8.33;2.00;;;14.70;99.90;;;;;;4963379;28;20187;-68
2022/07/21 05:53:42;;;;;;;8.40;2.47;;;14.70;99.90;;;;;;4970703;28;20190;-69
2022/07/21 05:56:09;;;;;;;7.43;2.47;;;14.70;99.90;;;;;;4966667;28;20359;-69
2022/07/21 05:58:37;;;;;;;5.80;1.83;;;14.60;99.90;;;;;;4974939;28;20179;-69
2022/07/21 06:01:13;;;;;;;9.40;2.73;;;14.60;99.90;;;;;;4966870;28;20191;-69
2022/07/21 06:03:44;;;;;;;6.40;2.03;;;14.50;99.90;;;;;;4964058;28;20335;-69
2022/07/21 06:06:13;;;;;;;10.57;2.70;;;14.50;99.90;;;;;;4959800;28;20642;-68
2022/07/21 06:08:41;;;;;;;7.07;2.43;;;14.50;99.90;;;;;;4966409;28;20194;-69
2022/07/21 06:11:10;;;;;;;7.40;2.43;;;14.40;99.90;;;;;;4970528;28;20183;-69
2022/07/21 06:13:38;;;;;;;9.73;2.43;;;14.40;99.90;;;;;;4974904;28;20294;-68
2022/07/21 06:16:06;;;;;;;10.63;2.97;;;14.30;99.90;;;;;;4970381;28;20316;-69
2022/07/21 06:18:34;;;;;;;9.97;2.53;;;14.30;99.90;;;;;;4972659;28;20190;-69
2022/07/21 06:21:01;;;;;;;5.33;2.20;;;14.20;99.90;;;;;;4973666;28;20665;-69
2022/07/21 06:23:29;;;;;;;6.17;2.87;;;14.20;99.90;;;;;;4969764;28;20184;-70
2022/07/21 06:25:57;;;;;;;6.07;2.57;;;14.20;99.90;;;;;;4959762;28;20188;-69
2022/07/21 06:28:24;;;;;;;11.27;3.40;;;14.10;99.90;;;;;;4959808;28;20215;-69
2022/07/21 06:30:52;;;;;;;10.27;2.73;;;14.10;99.90;;;;;;4961614;28;20270;-70
2022/07/21 06:33:19;;;;;;;11.57;3.00;;;14.10;99.90;;;;;;4978949;28;20675;-69
2022/07/21 06:35:47;;;;;;;8.73;2.77;;;14.00;99.90;;;;;;4978848;28;20221;-69
2022/07/21 06:38:14;;;;;;;7.90;2.50;;;14.00;99.90;;;;;;4978933;28;20186;-69
2022/07/21 06:40:42;;;;;;;6.50;2.40;;;13.90;99.90;;;;;;4978707;28;20289;-70
2022/07/21 06:43:09;;;;;;;8.17;2.43;;;13.90;99.90;;;;;;4978782;28;20583;-70
2022/07/21 06:45:37;;;;;;;8.70;2.60;;;13.80;99.90;;;;;;4968505;28;20196;-70
2022/07/21 06:48:09;;;;;;;7.03;2.60;;;13.80;99.90;;;;;;4959386;28;20563;-69
2022/07/21 06:50:37;;;;;;;13.17;3.30;;;13.80;99.90;;;;;;4960327;28;20277;-70
2022/07/21 06:53:05;;;;;;;7.73;1.87;;;13.80;99.90;;;;;;4959356;28;20191;-69
2022/07/21 06:55:33;;;;;;;6.77;2.00;;;13.60;99.90;;;;;;4959452;28;20218;-70
2022/07/21 06:58:14;;;;;;;8.40;2.03;;;13.60;99.90;;;;;;4958633;28;20184;-70
2022/07/21 07:00:41;;;;;;;4.93;2.00;;;13.50;99.90;;;;;;4956309;28;20179;-68
2022/07/21 07:03:09;;;;;;;9.77;2.47;;;13.50;99.90;;;;;;4956331;28;20593;-69
2022/07/21 07:05:37;;;;;;;7.70;3.30;;;13.40;99.90;;;;;;4956235;29;20544;-70
2022/07/21 07:08:05;;;;;;;14.07;2.80;;;13.40;99.90;;;;;;4956261;28;20566;-69
2022/07/21 07:10:33;;;;;;;13.33;2.87;;;13.30;99.90;;;;;;4958637;28;20229;-69
2022/07/21 07:13:01;;;;;;;7.10;2.37;;;13.30;99.90;;;;;;4956268;29;20180;-69
2022/07/21 07:15:29;;;;;;;11.30;2.60;;;13.30;99.90;;;;;;4963488;28;20258;-69
2022/07/21 07:17:56;;;;;;;8.17;2.40;;;13.30;99.90;;;;;;4974209;28;20193;-69
2022/07/21 07:20:24;;;;;;;16.63;2.40;;;13.30;99.90;;;;;;4973778;28;20859;-70
2022/07/21 07:22:51;;;;;;;7.97;2.50;;;13.20;99.90;;;;;;4963180;28;20188;-69
2022/07/21 07:25:19;;;;;;;7.17;2.70;;;13.20;99.90;;;;;;4955303;28;20231;-69
2022/07/21 07:27:49;;;;;;;11.13;2.77;;;13.20;99.90;;;;;;4955894;28;20249;-69
2022/07/21 07:30:18;;;;;;;14.87;8.03;;;13.20;99.90;;;;;;4955843;29;20192;-68
2022/07/21 07:32:47;;;;;;;9.40;4.03;;;13.20;99.90;;;;;;4956892;28;20560;-70
2022/07/21 07:35:15;;;;;;;11.57;3.30;;;13.20;99.90;;;;;;4954484;29;20223;-72
2022/07/21 07:37:44;;;;;;;9.10;3.37;;;13.20;99.90;;;;;;4956055;28;20654;-68
2022/07/21 07:40:18;;;;;;;11.13;4.17;;;13.20;99.90;;;;;;4971226;28;20238;-69
2022/07/21 07:42:46;;;;;;;10.23;3.97;;;13.20;99.90;;;;;;4955788;29;20184;-69
2022/07/21 07:45:14;;;;;;;12.73;4.80;;;13.20;99.90;;;;;;4955594;28;20191;-69
2022/07/21 07:47:42;;;;;;;10.10;5.17;;;13.10;99.90;;;;;;4955587;28;20172;-69
2022/07/21 07:50:11;;;;;;;10.17;4.40;;;13.10;99.90;;;;;;4969073;28;20189;-70
2022/07/21 07:52:40;;;;;;;11.03;5.07;;;13.10;99.90;;;;;;4974978;28;20562;-68
2022/07/21 07:55:10;;;;;;;11.30;5.47;;;13.10;99.90;;;;;;4962115;28;20291;-68
2022/07/21 07:57:39;;;;;;;11.33;4.77;;;13.00;99.90;;;;;;4960332;28;20190;-69
2022/07/21 08:00:10;;;;;;;11.33;5.20;;;13.00;99.90;;;;;;4970648;28;20209;-71
2022/07/21 08:02:38;;;;;;;12.83;5.50;;;13.10;99.90;;;;;;4974702;28;20229;-69
2022/07/21 08:05:07;;;;;;;11.43;5.37;;;13.10;99.90;;;;;;4969076;28;20191;-69
2022/07/21 08:07:37;;;;;;;12.50;5.67;;;13.10;99.90;;;;;;4964017;28;20209;-69
2022/07/21 08:10:14;;;;;;;12.70;5.20;;;13.10;99.90;;;;;;4973589;28;20224;-68
2022/07/21 08:12:41;;;;;;;11.83;5.73;;;13.00;99.90;;;;;;4974657;28;20209;-69
2022/07/21 08:15:10;;;;;;;9.13;4.97;;;13.00;99.90;;;;;;4974354;28;20560;-69
2022/07/21 08:17:37;;;;;;;13.47;5.20;;;13.00;99.90;;;;;;4965524;28;20187;-69
2022/07/21 08:20:06;;;;;;;14.90;5.40;;;13.10;99.90;;;;;;4955054;29;20207;-70
2022/07/21 08:22:33;;;;;;;14.47;4.97;;;13.10;99.90;;;;;;4954910;28;20194;-70
2022/07/21 08:25:00;;;;;;;13.23;5.17;;;13.10;99.90;;;;;;4954865;28;20187;-70
2022/07/21 08:27:28;;;;;;;11.37;5.47;;;13.00;99.90;;;;;;4953609;28;20222;-69
2022/07/21 08:29:55;;;;;;;19.53;6.23;;;13.00;99.90;;;;;;4962455;28;20191;-70
2022/07/21 08:32:23;;;;;;;15.83;5.27;;;13.00;99.90;;;;;;4954812;29;20192;-69
2022/07/21 08:34:50;;;;;;;15.17;5.17;;;13.00;99.90;;;;;;4954627;29;20664;-68
2022/07/21 08:37:20;;;;;;;13.30;5.60;;;13.00;99.90;;;;;;4954604;28;20631;-69
2022/07/21 08:39:48;;;;;;;15.60;5.40;;;13.00;99.90;;;;;;4954402;28;20282;-70
2022/07/21 08:42:16;;;;;;;11.70;5.77;;;13.10;99.90;;;;;;4954591;28;20191;-69
2022/07/21 08:44:44;;;;;;;14.17;6.53;;;13.10;99.90;;;;;;4953495;28;20183;-70
2022/07/21 08:47:11;;;;;;;13.50;6.47;;;13.10;99.90;;;;;;4973891;28;20211;-70
2022/07/21 08:49:39;;;;;;;21.23;8.70;;;13.10;99.90;;;;;;4973659;28;20187;-72
2022/07/21 08:52:07;;;;;;;17.47;9.07;;;13.10;99.90;;;;;;4973850;28;20183;-69
2022/07/21 08:54:35;;;;;;;15.77;9.77;;;13.10;99.90;;;;;;4972034;28;20570;-70
2022/07/21 08:57:02;;;;;;;20.43;9.87;;;13.10;99.90;;;;;;4973569;28;20244;-68
2022/07/21 08:59:30;;;;;;;22.40;11.37;;;13.10;99.90;;;;;;4967527;28;20237;-70
2022/07/21 09:01:58;;;;;;;18.13;8.70;;;13.20;99.90;;;;;;4972863;28;20233;-68
2022/07/21 09:04:34;;;;;;;17.93;8.17;;;13.20;99.90;;;;;;4973620;28;20277;-69
2022/07/21 09:07:05;;;;;;;20.37;5.17;;;13.20;99.90;;;;;;4968910;28;20269;-68
2022/07/21 09:09:35;;;;;;;13.67;5.80;;;13.20;99.90;;;;;;4954045;28;20186;-69
2022/07/21 09:12:06;;;;;;;15.77;5.10;;;13.20;99.90;;;;;;4955217;28;20194;-69
2022/07/21 09:14:35;;;;;;;13.63;5.27;;;13.10;99.90;;;;;;4959665;28;20186;-69
2022/07/21 09:17:04;;;;;;;8.60;4.10;;;13.10;99.90;;;;;;4973446;28;20269;-68
2022/07/21 09:19:38;;;;;;;9.37;3.83;;;13.10;99.90;;;;;;4973265;28;20264;-70
2022/07/21 09:22:12;;;;;;;11.03;3.70;;;13.20;99.90;;;;;;4970946;28;20264;-69
2022/07/21 09:24:40;;;;;;;12.97;3.50;;;13.20;99.90;;;;;;4956767;28;20667;-70
2022/07/21 09:27:11;;;;;;;7.67;3.33;;;13.20;99.90;;;;;;4973250;28;20175;-68
2022/07/21 09:29:49;;;;;;;11.87;3.70;;;13.20;99.90;;;;;;4969655;28;20762;-68
2022/07/21 09:32:28;;;;;;;9.00;4.30;;;13.10;99.90;;;;;;4961338;28;20174;-68
2022/07/21 09:35:04;;;;;;;11.63;3.90;;;13.10;99.90;;;;;;4973085;28;20222;-68
2022/07/21 09:37:32;;;;;;;9.73;5.03;;;13.00;99.90;;;;;;4964725;28;20321;-69
2022/07/21 09:40:06;;;;;;;11.10;4.07;;;13.00;99.90;;;;;;4953574;28;20318;-70
2022/07/21 09:42:37;;;;;;;15.03;4.70;;;13.00;99.90;;;;;;4967931;28;20222;-70
2022/07/21 09:45:07;;;;;;;11.87;4.60;;;13.10;99.90;;;;;;4972962;28;20237;-70
2022/07/21 09:47:38;;;;;;;13.03;4.20;;;13.10;99.90;;;;;;4973083;28;20717;-68
2022/07/21 09:50:08;;;;;;;10.23;3.30;;;13.10;99.90;;;;;;4972575;28;20651;-70
2022/07/21 09:52:36;;;;;;;12.43;2.67;;;13.10;99.90;;;;;;4973302;28;20234;-70
2022/07/21 09:55:09;;;;;;;8.03;2.47;;;13.00;99.90;;;;;;4971259;28;20297;-71
2022/07/21 09:57:37;;;;;;;10.90;2.47;;;13.00;99.90;;;;;;4952725;28;20183;-69
2022/07/21 10:00:10;;;;;;;5.83;2.00;;;12.90;99.90;;;;;;4953783;29;20202;-68
2022/07/21 10:02:38;;;;;;;15.17;4.03;;;12.90;99.90;;;;;;4953665;28;20187;-69
2022/07/21 10:05:14;;;;;;;9.50;2.80;;;12.90;99.90;;;;;;4953476;28;20191;-71
2022/07/21 10:07:44;;;;;;;11.00;2.60;;;12.90;99.90;;;;;;4962407;28;20187;-69
2022/07/21 10:10:13;;;;;;;10.30;2.20;;;12.90;99.90;;;;;;4972664;28;20184;-68
2022/07/21 10:12:40;;;;;;;9.17;2.30;;;12.90;99.90;;;;;;4972938;28;20195;-69
2022/07/21 10:15:08;;;;;;;9.63;2.07;;;12.90;99.90;;;;;;4965069;28;20256;-70
2022/07/21 10:17:40;;;;;;;8.30;2.00;;;12.90;99.90;;;;;;4953419;29;20265;-69
2022/07/21 10:20:13;;;;;;;12.77;2.70;;;12.90;99.90;;;;;;4953518;29;20192;-69
2022/07/21 10:23:15;;;;;;;11.40;2.10;;;12.80;99.90;;;;;;4953293;29;20198;-69
2022/07/21 10:25:47;;;;;;;7.27;2.00;;;12.80;99.90;;;;;;4957145;28;20194;-68
2022/07/21 10:28:24;;;;;;;6.70;1.90;;;12.70;99.90;;;;;;4961312;29;20245;-68
2022/07/21 10:30:56;;;;;;;5.57;1.63;;;12.60;99.90;;;;;;4958270;28;20652;-69
2022/07/21 10:33:43;;;;;;;8.67;2.37;;;12.60;99.90;;;;;;4961709;28;20707;-69
2022/07/21 10:36:34;;;;;;;19.83;7.07;;;12.50;99.90;;;;;;4974746;28;20597;-69
2022/07/21 10:39:16;;;;;;;13.20;6.83;;;12.50;99.90;;;;;;4974344;28;20227;-67
2022/07/21 10:41:51;;;;;;;13.67;6.97;;;12.40;99.90;;;;;;4976037;28;20190;-68
2022/07/21 10:44:30;;;;;;;13.90;5.27;;;12.30;99.90;;;;;;4975598;28;20267;-68
2022/07/21 10:47:06;;;;;;;10.57;4.30;;;12.20;99.90;;;;;;4975880;28;20190;-67
2022/07/21 10:49:43;;;;;;;28.43;16.77;;;12.20;99.90;;;;;;4975326;28;20177;-68
2022/07/21 10:52:35;;;;;;;24.10;11.77;;;12.20;99.90;;;;;;4975758;28;20186;-69
2022/07/21 10:55:11;;;;;;;21.00;8.23;;;12.00;99.90;;;;;;4970750;28;20253;-69
2022/07/21 10:57:47;;;;;;;14.13;6.37;;;11.90;99.90;;;;;;4976150;28;20543;-69
2022/07/21 11:00:34;;;;;;;15.13;6.10;;;11.80;99.90;;;;;;4975672;28;20192;-69
2022/07/21 11:03:04;;;;;;;16.37;5.10;;;11.70;99.90;;;;;;4965411;28;20221;-69
2022/07/21 11:05:34;;;;;;;9.13;4.03;;;11.60;99.90;;;;;;4966420;28;20201;-68
2022/07/21 11:08:21;;;;;;;9.43;3.77;;;11.50;99.90;;;;;;4966529;28;20211;-68
2022/07/21 11:11:06;;;;;;;15.67;5.70;;;11.50;99.90;;;;;;4963684;28;20224;-68
2022/07/21 11:14:12;;;;;;;12.53;5.20;;;11.50;99.90;;;;;;4959032;28;20215;-68
2022/07/21 11:17:04;;;;;;;7.00;4.30;;;11.60;99.90;;;;;;4959580;28;20691;-68
2022/07/21 11:19:39;;;;;;;10.07;4.30;;;11.60;99.90;;;;;;4956040;28;20189;-67
2022/07/21 11:22:21;;;;;;;8.33;4.27;;;11.50;99.90;;;;;;4956972;28;20198;-68
2022/07/21 11:24:52;;;;;;;12.97;4.30;;;11.40;99.90;;;;;;4963406;28;20177;-68
2022/07/21 11:27:23;;;;;;;13.00;3.93;;;11.40;99.90;;;;;;4974902;28;20185;-68
2022/07/21 11:29:53;;;;;;;9.63;4.10;;;11.50;99.90;;;;;;4970763;28;20182;-69
2022/07/21 11:32:21;;;;;;;8.87;4.00;;;11.40;99.90;;;;;;4973936;28;20189;-69
2022/07/21 11:34:54;;;;;;;7.40;3.47;;;11.30;99.90;;;;;;4973505;28;20624;-69
2022/07/21 11:37:28;;;;;;;9.27;3.97;;;11.20;99.90;;;;;;4975010;28;20177;-69
2022/07/21 11:40:03;;;;;;;13.37;3.93;;;11.20;99.90;;;;;;4959106;28;20785;-69
2022/07/21 11:42:31;;;;;;;19.37;4.77;;;11.10;99.90;;;;;;4954697;29;20217;-69
2022/07/21 11:44:59;;;;;;;8.47;3.97;;;11.00;99.90;;;;;;4955432;28;20194;-70
2022/07/21 11:47:26;;;;;;;7.80;3.70;;;11.00;99.90;;;;;;4956553;29;20207;-68
2022/07/21 11:49:56;;;;;;;9.97;4.27;;;11.00;99.90;;;;;;4957115;28;20188;-68
2022/07/21 11:52:34;;;;;;;10.43;4.73;;;11.00;99.90;;;;;;4965138;28;20611;-69
2022/07/21 11:55:04;;;;;;;7.23;4.00;;;11.00;99.90;;;;;;4957161;28;20761;-68
2022/07/21 11:57:32;;;;;;;18.90;7.33;;;11.10;99.90;;;;;;4956981;28;20176;-68
2022/07/21 12:00:00;;;;;;;15.20;7.73;;;11.10;99.90;;;;;;4957333;29;20176;-69
2022/07/21 12:02:30;;;;;;;20.10;5.23;;;11.20;99.90;;;;;;4957110;29;20572;-68
2022/07/21 12:04:58;;;;;;;14.17;4.57;;;11.20;99.90;;;;;;4973006;28;20662;-67
2022/07/21 12:07:28;;;;;;;12.70;3.53;;;11.40;99.90;;;;;;4976399;28;20184;-68
2022/07/21 12:09:58;;;;;;;19.30;3.67;;;11.60;99.90;;;;;;4973275;28;20563;-69
2022/07/21 12:12:35;;;;;;;15.00;3.20;;;11.80;99.90;;;;;;4959363;28;20199;-67
2022/07/21 12:15:22;;;;;;;6.97;2.93;;;11.80;99.90;;;;;;4961945;28;20759;-68
2022/07/21 12:17:52;;;;;;;12.03;2.60;;;11.80;99.90;;;;;;4956745;29;20181;-68
2022/07/21 12:20:27;;;;;;;13.87;2.57;;;11.90;99.90;;;;;;4971714;28;20217;-68
2022/07/21 12:22:56;;;;;;;13.27;2.90;;;11.90;99.90;;;;;;4975698;28;20273;-68
2022/07/21 12:25:35;;;;;;;7.80;2.07;;;11.90;99.90;;;;;;4963695;28;20228;-68
2022/07/21 12:28:04;;;;;;;10.00;1.93;;;12.00;99.90;;;;;;4973059;28;20193;-68
2022/07/21 12:30:38;;;;;;;8.63;1.60;;;12.30;99.90;;;;;;4974813;28;20228;-68
2022/07/21 12:33:16;;;;;;;6.20;1.77;;;12.50;99.90;;;;;;4974450;28;20663;-68
2022/07/21 12:35:59;;;;;;;7.60;1.80;;;12.60;99.90;;;;;;4975376;28;20291;-68
2022/07/21 12:38:47;;;;;;;5.60;1.60;;;12.60;99.90;;;;;;4975426;28;20194;-68
2022/07/21 12:41:21;;;;;;;5.33;1.30;;;12.70;99.90;;;;;;4975272;28;20201;-68
2022/07/21 12:43:56;;;;;;;6.53;1.50;;;12.70;99.90;;;;;;4975730;28;20275;-68
2022/07/21 12:46:30;;;;;;;5.87;1.50;;;12.70;99.90;;;;;;4975214;28;20265;-68
2022/07/21 12:49:12;;;;;;;7.43;1.27;;;12.60;99.90;;;;;;4975365;28;20178;-68
2022/07/21 12:51:54;;;;;;;6.10;1.60;;;12.50;99.90;;;;;;4966712;28;20598;-68
2022/07/21 12:54:22;;;;;;;9.07;2.07;;;12.40;99.90;;;;;;4975222;28;20244;-68
2022/07/21 12:56:49;;;;;;;5.57;1.70;;;12.20;99.90;;;;;;4957571;28;20210;-69
2022/07/21 12:59:16;;;;;;;8.60;2.13;;;12.10;99.90;;;;;;4956091;28;20179;-69